San Ramon, CA

9:51 AM PDT on September 19, 2014 (GMT -0700)
Metro Oakland International | Change Station
CLOSE
Current Station
Airport
Location: Oakland,
Elevation: 7 ft
Nearby Weather Stations

Elev 7 ft 37.72 °N, 122.23 °W | Updated 58 minutes ago

Clear
Clear
65 °F
Feels Like 65 °F
N
4
Wind Variable Wind from SSW

Today
High -- | Low -- °F
--% Chance of Precip.
Yesterday
High -- | Low -- °F
Precip. -- in
6:52 AM 7:09 PM
Waning Crescent, 18% visible
Pressure 29.92 in
Visibility 10.0 miles
Clouds Overcast 1100 ft
Dew Point 59 °F
Humidity 81%
Rainfall 0.00 in
Snow Depth 0 in , 0 in , 1 in
UV 1 out of 12
Pollen 4.70 out of 12
PM2.5 Good
Flu Activity Not available.
METAR KOAK 191553Z 20003KT 10SM OVC011 18/15 A2992 RMK AO2 SLP132 T01830150

More Conditions Fewer Conditions

Pressure 29.92 in
Visibility 10.0 miles
Clouds Overcast 1100 ft
Dew Point 59 °F
Humidity 81%
Rainfall 0.00 in
Snow Depth 0 in , 0 in , 1 in
UV 1 out of 12
Pollen 4.70 out of 12
PM2.5 Good
Flu Activity Not available.
METAR KOAK 191553Z 20003KT 10SM OVC011 18/15 A2992 RMK AO2 SLP132 T01830150

More Conditions Fewer Conditions

10-Day Weather Forecast

Almanac

Astronomy

Sep. 19, 2014 Rise Set
Actual Time 6:52 AM PDT 7:09 PM PDT
Civil Twilight 6:26 AM PDT 7:35 PM PDT
Nautical Twilight 5:55 AM PDT 8:05 PM PDT
Astronomical Twilight 5:24 AM PDT 8:37 PM PDT
Moon 2:46 AM PDT 4:37 PM PDT
Length of Visible Light 13h 08m
Length of Day
12h 16m
Tomorrow will be 2m 25s shorter.
Waning Crescent, 18% of the Moon is Illuminated
Today
Waning Crescent
Sep 24
New
Oct 1
First Quarter
Oct 8
Full
Oct 15
Last Quarter

Today's Extremes

State Highs State Lows

Community

WunderPhotos

Upload Photos

1,754,650 photos uploaded!

Nearby

Air Quality

  Air Quality AQ Index Pollutant
Yesterday Good
OZONE
Yesterday Good
PM2.5
Current Good
PM2.5
Friday Good
OZONE
Saturday Moderate
PM2.5
Sunday Moderate
PM2.5
Monday Good
OZONE
Tuesday Good
OZONE

Snow Depth

Station Depth Elevation
Hagan's Meadow 0 in 8000 ft
Independence Creek 0 in 6500 ft
Leavitt Lake 1 in 9400 ft
Ebbetts Pass 0 in 8700 ft
Fallen Leaf 0 in 6300 ft

Earthquake Activity

City Distance Mag. Time & Date
Livermore, California 10 miles 2.6 3:37 AM PDT
2014-09-19
The Geysers, California 81 miles 2.5 11:29 PM PDT
2014-09-17
Cobb, California 83 miles 2.7 1:23 PM PDT
2014-09-16
Minimum magnitude displayed is 2.5.

Coastal Water Temperatures

Place Temperature
No Stations Reporting

Nearby Weather Stations